sensor_id;sensor_type;location;lat;lon;timestamp;P1;durP1;ratioP1;P2;durP2;ratioP2
73512;SDS011;61754;55.008;73.348;2022-09-17T00:01:29;33.47;;;15.80;;
73512;SDS011;61754;55.008;73.348;2022-09-17T00:03:59;29.95;;;16.77;;
73512;SDS011;61754;55.008;73.348;2022-09-17T00:06:31;38.22;;;17.02;;
73512;SDS011;61754;55.008;73.348;2022-09-17T00:09:03;28.33;;;15.55;;
73512;SDS011;61754;55.008;73.348;2022-09-17T00:11:30;42.25;;;16.05;;
73512;SDS011;61754;55.008;73.348;2022-09-17T00:13:57;29.95;;;15.32;;
73512;SDS011;61754;55.008;73.348;2022-09-17T00:16:34;37.17;;;15.50;;
73512;SDS011;61754;55.008;73.348;2022-09-17T00:19:00;28.73;;;14.45;;
73512;SDS011;61754;55.008;73.348;2022-09-17T00:21:27;29.60;;;12.95;;
73512;SDS011;61754;55.008;73.348;2022-09-17T00:23:57;36.50;;;13.98;;
73512;SDS011;61754;55.008;73.348;2022-09-17T00:26:29;28.58;;;14.50;;
73512;SDS011;61754;55.008;73.348;2022-09-17T00:28:59;27.75;;;12.93;;
73512;SDS011;61754;55.008;73.348;2022-09-17T00:31:30;17.95;;;10.07;;
73512;SDS011;61754;55.008;73.348;2022-09-17T00:34:03;32.28;;;12.75;;
73512;SDS011;61754;55.008;73.348;2022-09-17T00:36:29;29.73;;;12.60;;
73512;SDS011;61754;55.008;73.348;2022-09-17T00:38:56;31.90;;;12.07;;
73512;SDS011;61754;55.008;73.348;2022-09-17T00:41:23;36.78;;;12.65;;
73512;SDS011;61754;55.008;73.348;2022-09-17T00:43:51;24.60;;;11.40;;
73512;SDS011;61754;55.008;73.348;2022-09-17T00:46:37;38.10;;;13.65;;
73512;SDS011;61754;55.008;73.348;2022-09-17T00:51:52;38.47;;;13.90;;
73512;SDS011;61754;55.008;73.348;2022-09-17T00:54:21;34.90;;;13.18;;
73512;SDS011;61754;55.008;73.348;2022-09-17T00:56:53;38.83;;;14.18;;
73512;SDS011;61754;55.008;73.348;2022-09-17T00:59:19;26.70;;;12.70;;
73512;SDS011;61754;55.008;73.348;2022-09-17T01:01:47;29.98;;;13.30;;
73512;SDS011;61754;55.008;73.348;2022-09-17T01:04:16;24.08;;;11.30;;
73512;SDS011;61754;55.008;73.348;2022-09-17T01:09:29;33.92;;;12.65;;
73512;SDS011;61754;55.008;73.348;2022-09-17T01:28:13;28.77;;;10.13;;
73512;SDS011;61754;55.008;73.348;2022-09-17T01:44:02;20.10;;;10.60;;
73512;SDS011;61754;55.008;73.348;2022-09-17T01:47:03;23.25;;;10.95;;
73512;SDS011;61754;55.008;73.348;2022-09-17T01:49:27;28.38;;;11.45;;
73512;SDS011;61754;55.008;73.348;2022-09-17T01:51:54;32.90;;;12.45;;
73512;SDS011;61754;55.008;73.348;2022-09-17T01:57:22;57.72;;;39.55;;
73512;SDS011;61754;55.008;73.348;2022-09-17T01:59:56;59.28;;;35.47;;
73512;SDS011;61754;55.008;73.348;2022-09-17T02:05:04;30.23;;;16.23;;
73512;SDS011;61754;55.008;73.348;2022-09-17T02:07:43;19.27;;;11.00;;
73512;SDS011;61754;55.008;73.348;2022-09-17T02:10:12;26.23;;;11.13;;
73512;SDS011;61754;55.008;73.348;2022-09-17T02:12:40;18.83;;;9.95;;
73512;SDS011;61754;55.008;73.348;2022-09-17T02:15:08;35.92;;;11.82;;
73512;SDS011;61754;55.008;73.348;2022-09-17T02:17:38;26.98;;;12.00;;
73512;SDS011;61754;55.008;73.348;2022-09-17T02:20:07;30.92;;;13.15;;
73512;SDS011;61754;55.008;73.348;2022-09-17T02:28:21;32.53;;;15.13;;
73512;SDS011;61754;55.008;73.348;2022-09-17T02:30:27;28.95;;;14.23;;
73512;SDS011;61754;55.008;73.348;2022-09-17T02:32:57;28.63;;;13.13;;
73512;SDS011;61754;55.008;73.348;2022-09-17T02:35:23;27.10;;;10.98;;
73512;SDS011;61754;55.008;73.348;2022-09-17T02:37:49;24.15;;;11.10;;
73512;SDS011;61754;55.008;73.348;2022-09-17T02:40:15;36.85;;;11.13;;
73512;SDS011;61754;55.008;73.348;2022-09-17T02:51:12;35.00;;;12.50;;
73512;SDS011;61754;55.008;73.348;2022-09-17T02:56:15;38.17;;;15.65;;
73512;SDS011;61754;55.008;73.348;2022-09-17T03:02:00;38.80;;;11.18;;
73512;SDS011;61754;55.008;73.348;2022-09-17T03:04:27;22.00;;;8.18;;
73512;SDS011;61754;55.008;73.348;2022-09-17T03:07:06;20.85;;;7.22;;
73512;SDS011;61754;55.008;73.348;2022-09-17T03:09:34;26.23;;;6.63;;
73512;SDS011;61754;55.008;73.348;2022-09-17T03:12:06;24.45;;;7.63;;
73512;SDS011;61754;55.008;73.348;2022-09-17T03:14:32;25.02;;;8.18;;
73512;SDS011;61754;55.008;73.348;2022-09-17T03:17:11;42.72;;;16.05;;
73512;SDS011;61754;55.008;73.348;2022-09-17T03:19:47;22.17;;;8.73;;
73512;SDS011;61754;55.008;73.348;2022-09-17T03:22:13;33.80;;;9.98;;
73512;SDS011;61754;55.008;73.348;2022-09-17T03:24:49;21.02;;;7.88;;
73512;SDS011;61754;55.008;73.348;2022-09-17T03:27:15;24.17;;;7.18;;
73512;SDS011;61754;55.008;73.348;2022-09-17T03:29:50;19.55;;;6.47;;
73512;SDS011;61754;55.008;73.348;2022-09-17T03:32:26;12.52;;;5.65;;
73512;SDS011;61754;55.008;73.348;2022-09-17T03:34:52;19.98;;;6.30;;
73512;SDS011;61754;55.008;73.348;2022-09-17T03:37:19;21.85;;;6.80;;
73512;SDS011;61754;55.008;73.348;2022-09-17T03:39:46;27.10;;;8.95;;
73512;SDS011;61754;55.008;73.348;2022-09-17T03:42:12;22.30;;;7.72;;
73512;SDS011;61754;55.008;73.348;2022-09-17T03:44:38;30.38;;;8.13;;
73512;SDS011;61754;55.008;73.348;2022-09-17T03:47:04;32.25;;;8.13;;
73512;SDS011;61754;55.008;73.348;2022-09-17T03:49:30;22.02;;;8.82;;
73512;SDS011;61754;55.008;73.348;2022-09-17T03:51:56;29.63;;;7.85;;
73512;SDS011;61754;55.008;73.348;2022-09-17T03:54:22;21.42;;;7.90;;
73512;SDS011;61754;55.008;73.348;2022-09-17T03:56:48;19.10;;;6.88;;
73512;SDS011;61754;55.008;73.348;2022-09-17T03:59:14;16.63;;;6.35;;
73512;SDS011;61754;55.008;73.348;2022-09-17T04:01:44;20.80;;;7.00;;
73512;SDS011;61754;55.008;73.348;2022-09-17T04:04:15;23.95;;;8.40;;
73512;SDS011;61754;55.008;73.348;2022-09-17T04:06:41;24.08;;;10.73;;
73512;SDS011;61754;55.008;73.348;2022-09-17T04:09:07;22.15;;;10.85;;
73512;SDS011;61754;55.008;73.348;2022-09-17T04:11:33;19.15;;;9.68;;
73512;SDS011;61754;55.008;73.348;2022-09-17T04:13:59;19.13;;;10.70;;
73512;SDS011;61754;55.008;73.348;2022-09-17T04:16:35;21.20;;;12.55;;
73512;SDS011;61754;55.008;73.348;2022-09-17T04:19:06;23.65;;;13.63;;
73512;SDS011;61754;55.008;73.348;2022-09-17T04:21:32;24.27;;;11.40;;
73512;SDS011;61754;55.008;73.348;2022-09-17T04:23:58;21.33;;;12.10;;
73512;SDS011;61754;55.008;73.348;2022-09-17T04:26:24;21.60;;;14.13;;
73512;SDS011;61754;55.008;73.348;2022-09-17T04:28:50;23.63;;;11.43;;
73512;SDS011;61754;55.008;73.348;2022-09-17T04:31:16;16.00;;;9.95;;
73512;SDS011;61754;55.008;73.348;2022-09-17T04:33:42;15.23;;;8.50;;
73512;SDS011;61754;55.008;73.348;2022-09-17T04:36:08;17.25;;;5.55;;
73512;SDS011;61754;55.008;73.348;2022-09-17T04:38:34;15.85;;;6.57;;
73512;SDS011;61754;55.008;73.348;2022-09-17T04:41:00;13.88;;;6.72;;
73512;SDS011;61754;55.008;73.348;2022-09-17T04:43:26;13.85;;;5.85;;
73512;SDS011;61754;55.008;73.348;2022-09-17T04:45:52;16.92;;;7.60;;
73512;SDS011;61754;55.008;73.348;2022-09-17T04:48:18;19.25;;;7.53;;
73512;SDS011;61754;55.008;73.348;2022-09-17T04:50:47;17.83;;;7.72;;
73512;SDS011;61754;55.008;73.348;2022-09-17T04:53:23;14.32;;;7.57;;
73512;SDS011;61754;55.008;73.348;2022-09-17T04:55:54;19.63;;;8.23;;
73512;SDS011;61754;55.008;73.348;2022-09-17T04:58:20;9.70;;;4.88;;
73512;SDS011;61754;55.008;73.348;2022-09-17T05:00:57;8.80;;;3.90;;
73512;SDS011;61754;55.008;73.348;2022-09-17T05:03:28;14.82;;;3.47;;
73512;SDS011;61754;55.008;73.348;2022-09-17T05:05:54;5.70;;;3.40;;
73512;SDS011;61754;55.008;73.348;2022-09-17T05:08:20;13.98;;;3.20;;
73512;SDS011;61754;55.008;73.348;2022-09-17T05:10:49;9.27;;;2.60;;
73512;SDS011;61754;55.008;73.348;2022-09-17T05:13:15;6.38;;;3.63;;
73512;SDS011;61754;55.008;73.348;2022-09-17T05:15:41;8.77;;;5.13;;
73512;SDS011;61754;55.008;73.348;2022-09-17T05:18:07;10.15;;;4.63;;
73512;SDS011;61754;55.008;73.348;2022-09-17T05:20:38;6.47;;;3.92;;
73512;SDS011;61754;55.008;73.348;2022-09-17T05:23:04;12.00;;;4.13;;
73512;SDS011;61754;55.008;73.348;2022-09-17T05:25:30;6.35;;;3.67;;
73512;SDS011;61754;55.008;73.348;2022-09-17T05:28:02;8.75;;;3.97;;
73512;SDS011;61754;55.008;73.348;2022-09-17T05:30:31;6.57;;;3.60;;
73512;SDS011;61754;55.008;73.348;2022-09-17T05:33:00;10.35;;;3.80;;
73512;SDS011;61754;55.008;73.348;2022-09-17T05:35:37;3.33;;;3.03;;
73512;SDS011;61754;55.008;73.348;2022-09-17T05:38:04;8.80;;;5.03;;
73512;SDS011;61754;55.008;73.348;2022-09-17T05:40:40;5.13;;;3.80;;
73512;SDS011;61754;55.008;73.348;2022-09-17T05:43:06;8.25;;;4.20;;
73512;SDS011;61754;55.008;73.348;2022-09-17T05:45:39;17.02;;;4.10;;
73512;SDS011;61754;55.008;73.348;2022-09-17T05:48:06;5.40;;;4.07;;
73512;SDS011;61754;55.008;73.348;2022-09-17T05:50:34;5.22;;;2.50;;
73512;SDS011;61754;55.008;73.348;2022-09-17T05:53:04;8.05;;;2.13;;
73512;SDS011;61754;55.008;73.348;2022-09-17T05:55:40;6.82;;;2.30;;
73512;SDS011;61754;55.008;73.348;2022-09-17T05:58:10;4.82;;;1.90;;
73512;SDS011;61754;55.008;73.348;2022-09-17T06:00:36;5.95;;;2.50;;
73512;SDS011;61754;55.008;73.348;2022-09-17T06:03:02;4.88;;;1.65;;
73512;SDS011;61754;55.008;73.348;2022-09-17T06:05:28;6.57;;;1.60;;
73512;SDS011;61754;55.008;73.348;2022-09-17T06:07:54;6.60;;;2.90;;
73512;SDS011;61754;55.008;73.348;2022-09-17T06:10:20;3.70;;;1.67;;
73512;SDS011;61754;55.008;73.348;2022-09-17T06:12:55;3.42;;;1.25;;
73512;SDS011;61754;55.008;73.348;2022-09-17T06:15:21;10.10;;;1.55;;
73512;SDS011;61754;55.008;73.348;2022-09-17T06:17:47;4.50;;;1.10;;
73512;SDS011;61754;55.008;73.348;2022-09-17T06:20:13;4.43;;;2.30;;
73512;SDS011;61754;55.008;73.348;2022-09-17T06:22:45;4.47;;;2.70;;
73512;SDS011;61754;55.008;73.348;2022-09-17T06:25:11;3.05;;;1.70;;
73512;SDS011;61754;55.008;73.348;2022-09-17T06:27:37;5.68;;;1.30;;
73512;SDS011;61754;55.008;73.348;2022-09-17T06:30:13;3.33;;;1.65;;
73512;SDS011;61754;55.008;73.348;2022-09-17T06:32:44;3.85;;;1.60;;
73512;SDS011;61754;55.008;73.348;2022-09-17T06:35:20;1.35;;;1.00;;
73512;SDS011;61754;55.008;73.348;2022-09-17T06:37:46;1.75;;;1.00;;
73512;SDS011;61754;55.008;73.348;2022-09-17T06:40:23;8.95;;;1.60;;
73512;SDS011;61754;55.008;73.348;2022-09-17T06:42:59;5.03;;;1.98;;
73512;SDS011;61754;55.008;73.348;2022-09-17T06:45:35;2.95;;;1.23;;
73512;SDS011;61754;55.008;73.348;2022-09-17T06:48:04;0.93;;;0.88;;
73512;SDS011;61754;55.008;73.348;2022-09-17T06:50:30;17.50;;;1.20;;
73512;SDS011;61754;55.008;73.348;2022-09-17T06:52:56;5.53;;;1.60;;
73512;SDS011;61754;55.008;73.348;2022-09-17T06:55:22;3.47;;;1.15;;
73512;SDS011;61754;55.008;73.348;2022-09-17T06:57:48;4.15;;;1.40;;
73512;SDS011;61754;55.008;73.348;2022-09-17T07:00:14;2.53;;;1.48;;
73512;SDS011;61754;55.008;73.348;2022-09-17T07:02:40;6.78;;;1.80;;
73512;SDS011;61754;55.008;73.348;2022-09-17T07:05:11;1.33;;;1.23;;
73512;SDS011;61754;55.008;73.348;2022-09-17T07:07:38;2.35;;;1.30;;
73512;SDS011;61754;55.008;73.348;2022-09-17T07:10:05;2.70;;;1.25;;
73512;SDS011;61754;55.008;73.348;2022-09-17T07:12:39;1.73;;;1.33;;
73512;SDS011;61754;55.008;73.348;2022-09-17T07:15:10;2.28;;;1.05;;
73512;SDS011;61754;55.008;73.348;2022-09-17T07:17:36;3.05;;;1.30;;
73512;SDS011;61754;55.008;73.348;2022-09-17T07:20:08;3.45;;;1.45;;
73512;SDS011;61754;55.008;73.348;2022-09-17T07:22:43;5.18;;;0.80;;
73512;SDS011;61754;55.008;73.348;2022-09-17T07:25:10;2.33;;;1.10;;
73512;SDS011;61754;55.008;73.348;2022-09-17T07:27:45;2.47;;;0.80;;
73512;SDS011;61754;55.008;73.348;2022-09-17T07:30:16;3.63;;;1.20;;
73512;SDS011;61754;55.008;73.348;2022-09-17T07:32:43;2.42;;;1.20;;
73512;SDS011;61754;55.008;73.348;2022-09-17T07:35:09;2.83;;;1.35;;
73512;SDS011;61754;55.008;73.348;2022-09-17T07:37:35;3.67;;;1.10;;
73512;SDS011;61754;55.008;73.348;2022-09-17T07:40:01;2.33;;;1.38;;
73512;SDS011;61754;55.008;73.348;2022-09-17T07:42:27;1.73;;;1.08;;
73512;SDS011;61754;55.008;73.348;2022-09-17T07:44:53;4.18;;;1.20;;
73512;SDS011;61754;55.008;73.348;2022-09-17T07:47:19;4.03;;;1.15;;
73512;SDS011;61754;55.008;73.348;2022-09-17T07:49:45;1.02;;;1.02;;
73512;SDS011;61754;55.008;73.348;2022-09-17T07:52:11;3.25;;;1.00;;
73512;SDS011;61754;55.008;73.348;2022-09-17T07:54:37;3.63;;;0.88;;
73512;SDS011;61754;55.008;73.348;2022-09-17T07:57:03;4.78;;;0.90;;
73512;SDS011;61754;55.008;73.348;2022-09-17T07:59:29;6.90;;;1.00;;
73512;SDS011;61754;55.008;73.348;2022-09-17T08:02:07;4.10;;;1.45;;
73512;SDS011;61754;55.008;73.348;2022-09-17T08:04:43;4.53;;;1.08;;
73512;SDS011;61754;55.008;73.348;2022-09-17T08:07:11;0.80;;;0.77;;
73512;SDS011;61754;55.008;73.348;2022-09-17T08:09:48;8.25;;;1.60;;
73512;SDS011;61754;55.008;73.348;2022-09-17T08:12:14;2.15;;;1.02;;
73512;SDS011;61754;55.008;73.348;2022-09-17T08:14:42;7.15;;;1.20;;
73512;SDS011;61754;55.008;73.348;2022-09-17T08:17:19;3.50;;;0.90;;
73512;SDS011;61754;55.008;73.348;2022-09-17T08:19:49;5.47;;;1.13;;
73512;SDS011;61754;55.008;73.348;2022-09-17T08:22:15;4.97;;;1.20;;
73512;SDS011;61754;55.008;73.348;2022-09-17T08:24:41;3.15;;;1.17;;
73512;SDS011;61754;55.008;73.348;2022-09-17T08:27:07;5.10;;;1.15;;
73512;SDS011;61754;55.008;73.348;2022-09-17T08:29:33;2.75;;;1.50;;
73512;SDS011;61754;55.008;73.348;2022-09-17T08:31:59;1.15;;;1.05;;
73512;SDS011;61754;55.008;73.348;2022-09-17T08:34:25;11.18;;;1.67;;
73512;SDS011;61754;55.008;73.348;2022-09-17T08:36:51;6.65;;;1.23;;
73512;SDS011;61754;55.008;73.348;2022-09-17T08:39:17;3.95;;;1.38;;
73512;SDS011;61754;55.008;73.348;2022-09-17T08:41:48;4.25;;;1.00;;
73512;SDS011;61754;55.008;73.348;2022-09-17T08:44:23;1.80;;;1.15;;
73512;SDS011;61754;55.008;73.348;2022-09-17T08:47:12;2.38;;;1.50;;
73512;SDS011;61754;55.008;73.348;2022-09-17T08:49:57;4.15;;;1.40;;
73512;SDS011;61754;55.008;73.348;2022-09-17T08:52:45;6.22;;;1.83;;
73512;SDS011;61754;55.008;73.348;2022-09-17T09:00:52;3.05;;;1.90;;
73512;SDS011;61754;55.008;73.348;2022-09-17T09:06:22;3.80;;;2.65;;
73512;SDS011;61754;55.008;73.348;2022-09-17T09:09:25;5.63;;;1.92;;
73512;SDS011;61754;55.008;73.348;2022-09-17T09:11:44;2.10;;;1.90;;
73512;SDS011;61754;55.008;73.348;2022-09-17T09:14:26;4.88;;;1.00;;
73512;SDS011;61754;55.008;73.348;2022-09-17T09:16:53;11.02;;;3.17;;
73512;SDS011;61754;55.008;73.348;2022-09-17T09:19:26;4.18;;;1.40;;
73512;SDS011;61754;55.008;73.348;2022-09-17T09:22:21;6.45;;;1.25;;
73512;SDS011;61754;55.008;73.348;2022-09-17T09:24:40;3.83;;;0.88;;
73512;SDS011;61754;55.008;73.348;2022-09-17T09:27:17;2.00;;;1.20;;
73512;SDS011;61754;55.008;73.348;2022-09-17T09:30:03;3.15;;;1.20;;
73512;SDS011;61754;55.008;73.348;2022-09-17T09:32:49;1.33;;;1.08;;
73512;SDS011;61754;55.008;73.348;2022-09-17T09:35:28;2.30;;;1.10;;
73512;SDS011;61754;55.008;73.348;2022-09-17T09:43:17;3.00;;;1.20;;
73512;SDS011;61754;55.008;73.348;2022-09-17T09:45:48;8.93;;;1.58;;
73512;SDS011;61754;55.008;73.348;2022-09-17T09:48:37;3.58;;;1.38;;
73512;SDS011;61754;55.008;73.348;2022-09-17T09:54:12;2.03;;;1.05;;
73512;SDS011;61754;55.008;73.348;2022-09-17T09:56:54;11.85;;;1.65;;
73512;SDS011;61754;55.008;73.348;2022-09-17T09:59:20;5.40;;;1.30;;
73512;SDS011;61754;55.008;73.348;2022-09-17T10:01:51;2.67;;;1.15;;
73512;SDS011;61754;55.008;73.348;2022-09-17T10:04:21;4.97;;;1.52;;
73512;SDS011;61754;55.008;73.348;2022-09-17T10:06:49;3.38;;;1.00;;
73512;SDS011;61754;55.008;73.348;2022-09-17T10:09:16;6.63;;;1.42;;
73512;SDS011;61754;55.008;73.348;2022-09-17T10:11:58;5.03;;;1.02;;
73512;SDS011;61754;55.008;73.348;2022-09-17T10:14:25;2.15;;;1.20;;
73512;SDS011;61754;55.008;73.348;2022-09-17T10:17:25;4.15;;;1.35;;
73512;SDS011;61754;55.008;73.348;2022-09-17T10:19:46;4.53;;;1.15;;
73512;SDS011;61754;55.008;73.348;2022-09-17T10:22:22;7.43;;;1.30;;
73512;SDS011;61754;55.008;73.348;2022-09-17T10:24:52;2.35;;;1.25;;
73512;SDS011;61754;55.008;73.348;2022-09-17T10:27:19;1.48;;;1.38;;
73512;SDS011;61754;55.008;73.348;2022-09-17T10:29:46;2.95;;;1.98;;
73512;SDS011;61754;55.008;73.348;2022-09-17T10:32:19;1.85;;;1.67;;
73512;SDS011;61754;55.008;73.348;2022-09-17T10:37:43;3.92;;;1.08;;
73512;SDS011;61754;55.008;73.348;2022-09-17T10:42:45;6.88;;;1.30;;
73512;SDS011;61754;55.008;73.348;2022-09-17T10:45:28;2.95;;;1.35;;
73512;SDS011;61754;55.008;73.348;2022-09-17T10:48:03;1.85;;;1.05;;
73512;SDS011;61754;55.008;73.348;2022-09-17T10:50:39;1.55;;;1.10;;
73512;SDS011;61754;55.008;73.348;2022-09-17T10:53:05;4.90;;;1.80;;
73512;SDS011;61754;55.008;73.348;2022-09-17T10:58:06;2.65;;;1.00;;
73512;SDS011;61754;55.008;73.348;2022-09-17T11:14:19;3.45;;;0.73;;
73512;SDS011;61754;55.008;73.348;2022-09-17T11:25:04;8.32;;;1.33;;
73512;SDS011;61754;55.008;73.348;2022-09-17T11:27:41;1.52;;;1.40;;
73512;SDS011;61754;55.008;73.348;2022-09-17T11:30:22;8.85;;;1.70;;
73512;SDS011;61754;55.008;73.348;2022-09-17T11:33:05;1.58;;;1.48;;
73512;SDS011;61754;55.008;73.348;2022-09-17T11:35:51;2.17;;;1.75;;
73512;SDS011;61754;55.008;73.348;2022-09-17T11:38:24;3.28;;;2.05;;
73512;SDS011;61754;55.008;73.348;2022-09-17T11:41:02;6.90;;;2.08;;
73512;SDS011;61754;55.008;73.348;2022-09-17T11:43:30;2.22;;;1.42;;
73512;SDS011;61754;55.008;73.348;2022-09-17T11:48:38;6.28;;;1.40;;
73512;SDS011;61754;55.008;73.348;2022-09-17T11:53:47;1.17;;;1.00;;
73512;SDS011;61754;55.008;73.348;2022-09-17T11:56:26;2.03;;;1.15;;
73512;SDS011;61754;55.008;73.348;2022-09-17T12:09:28;4.20;;;1.15;;
73512;SDS011;61754;55.008;73.348;2022-09-17T12:12:06;2.28;;;1.30;;
73512;SDS011;61754;55.008;73.348;2022-09-17T12:14:42;3.90;;;1.17;;
73512;SDS011;61754;55.008;73.348;2022-09-17T12:17:11;1.25;;;1.02;;
73512;SDS011;61754;55.008;73.348;2022-09-17T12:19:42;2.83;;;1.02;;
73512;SDS011;61754;55.008;73.348;2022-09-17T12:22:25;3.22;;;1.15;;
73512;SDS011;61754;55.008;73.348;2022-09-17T12:24:52;5.03;;;1.70;;
73512;SDS011;61754;55.008;73.348;2022-09-17T12:30:10;4.10;;;1.35;;
73512;SDS011;61754;55.008;73.348;2022-09-17T12:41:00;7.82;;;3.05;;
73512;SDS011;61754;55.008;73.348;2022-09-17T12:51:50;8.57;;;2.80;;
73512;SDS011;61754;55.008;73.348;2022-09-17T12:55:19;6.35;;;2.65;;
73512;SDS011;61754;55.008;73.348;2022-09-17T12:59:59;9.57;;;2.58;;
73512;SDS011;61754;55.008;73.348;2022-09-17T13:02:29;17.60;;;2.90;;
73512;SDS011;61754;55.008;73.348;2022-09-17T13:07:28;9.45;;;4.10;;
73512;SDS011;61754;55.008;73.348;2022-09-17T13:20:57;85.72;;;31.08;;
73512;SDS011;61754;55.008;73.348;2022-09-17T13:23:45;38.58;;;15.18;;
73512;SDS011;61754;55.008;73.348;2022-09-17T13:26:18;43.15;;;21.83;;
73512;SDS011;61754;55.008;73.348;2022-09-17T13:28:45;83.22;;;46.08;;
73512;SDS011;61754;55.008;73.348;2022-09-17T13:31:12;62.67;;;27.30;;
73512;SDS011;61754;55.008;73.348;2022-09-17T13:33:52;33.22;;;18.58;;
73512;SDS011;61754;55.008;73.348;2022-09-17T13:42:31;35.40;;;21.67;;
73512;SDS011;61754;55.008;73.348;2022-09-17T13:45:05;28.27;;;16.35;;
73512;SDS011;61754;55.008;73.348;2022-09-17T13:47:33;39.40;;;17.83;;
73512;SDS011;61754;55.008;73.348;2022-09-17T13:50:08;41.65;;;23.02;;
73512;SDS011;61754;55.008;73.348;2022-09-17T13:55:01;57.40;;;29.20;;
73512;SDS011;61754;55.008;73.348;2022-09-17T13:57:28;76.90;;;40.15;;
73512;SDS011;61754;55.008;73.348;2022-09-17T13:59:57;49.35;;;25.80;;
73512;SDS011;61754;55.008;73.348;2022-09-17T14:04:55;104.13;;;54.00;;
73512;SDS011;61754;55.008;73.348;2022-09-17T14:08:04;96.05;;;49.10;;
73512;SDS011;61754;55.008;73.348;2022-09-17T14:10:38;104.85;;;60.00;;
73512;SDS011;61754;55.008;73.348;2022-09-17T14:13:25;84.93;;;45.25;;
73512;SDS011;61754;55.008;73.348;2022-09-17T14:15:58;70.07;;;35.22;;
73512;SDS011;61754;55.008;73.348;2022-09-17T14:21:09;53.97;;;36.35;;
73512;SDS011;61754;55.008;73.348;2022-09-17T14:23:43;64.00;;;35.65;;
73512;SDS011;61754;55.008;73.348;2022-09-17T14:26:11;48.90;;;24.65;;
73512;SDS011;61754;55.008;73.348;2022-09-17T14:29:22;39.88;;;22.65;;
73512;SDS011;61754;55.008;73.348;2022-09-17T14:31:29;46.35;;;26.35;;
73512;SDS011;61754;55.008;73.348;2022-09-17T14:34:01;66.10;;;28.25;;
73512;SDS011;61754;55.008;73.348;2022-09-17T14:36:38;58.03;;;28.88;;
73512;SDS011;61754;55.008;73.348;2022-09-17T14:39:05;59.33;;;29.88;;
73512;SDS011;61754;55.008;73.348;2022-09-17T14:41:37;72.38;;;33.58;;
73512;SDS011;61754;55.008;73.348;2022-09-17T14:44:20;111.18;;;60.67;;
73512;SDS011;61754;55.008;73.348;2022-09-17T14:51:44;96.57;;;45.10;;
73512;SDS011;61754;55.008;73.348;2022-09-17T14:56:44;86.28;;;42.08;;
73512;SDS011;61754;55.008;73.348;2022-09-17T15:01:38;82.47;;;45.67;;
73512;SDS011;61754;55.008;73.348;2022-09-17T15:06:48;104.20;;;54.63;;
73512;SDS011;61754;55.008;73.348;2022-09-17T15:09:15;87.78;;;46.65;;
73512;SDS011;61754;55.008;73.348;2022-09-17T15:11:41;79.85;;;38.45;;
73512;SDS011;61754;55.008;73.348;2022-09-17T15:14:19;86.80;;;39.47;;
73512;SDS011;61754;55.008;73.348;2022-09-17T15:16:56;73.63;;;41.78;;
73512;SDS011;61754;55.008;73.348;2022-09-17T15:19:24;91.45;;;40.80;;
73512;SDS011;61754;55.008;73.348;2022-09-17T15:21:54;87.88;;;47.47;;
73512;SDS011;61754;55.008;73.348;2022-09-17T15:24:40;89.45;;;47.00;;
73512;SDS011;61754;55.008;73.348;2022-09-17T15:29:54;76.53;;;43.53;;
73512;SDS011;61754;55.008;73.348;2022-09-17T15:32:21;81.20;;;43.85;;
73512;SDS011;61754;55.008;73.348;2022-09-17T15:37:32;95.75;;;42.35;;
73512;SDS011;61754;55.008;73.348;2022-09-17T15:39:58;88.65;;;41.40;;
73512;SDS011;61754;55.008;73.348;2022-09-17T15:42:28;87.53;;;45.00;;
73512;SDS011;61754;55.008;73.348;2022-09-17T15:45:33;97.28;;;50.67;;
73512;SDS011;61754;55.008;73.348;2022-09-17T15:47:58;89.78;;;45.05;;
73512;SDS011;61754;55.008;73.348;2022-09-17T15:50:33;61.33;;;34.85;;
73512;SDS011;61754;55.008;73.348;2022-09-17T15:55:31;110.00;;;57.30;;
73512;SDS011;61754;55.008;73.348;2022-09-17T15:57:58;121.38;;;60.40;;
73512;SDS011;61754;55.008;73.348;2022-09-17T16:00:24;114.75;;;58.78;;
73512;SDS011;61754;55.008;73.348;2022-09-17T16:02:50;129.60;;;66.13;;
73512;SDS011;61754;55.008;73.348;2022-09-17T16:07:50;114.13;;;54.50;;
73512;SDS011;61754;55.008;73.348;2022-09-17T16:10:16;98.72;;;49.72;;
73512;SDS011;61754;55.008;73.348;2022-09-17T16:12:42;89.32;;;48.88;;
73512;SDS011;61754;55.008;73.348;2022-09-17T16:15:09;133.15;;;62.72;;
73512;SDS011;61754;55.008;73.348;2022-09-17T16:17:41;102.75;;;56.95;;
73512;SDS011;61754;55.008;73.348;2022-09-17T16:20:26;119.85;;;55.45;;
73512;SDS011;61754;55.008;73.348;2022-09-17T16:22:52;94.75;;;45.88;;
73512;SDS011;61754;55.008;73.348;2022-09-17T16:25:19;101.95;;;46.63;;
73512;SDS011;61754;55.008;73.348;2022-09-17T16:27:49;86.85;;;43.00;;
73512;SDS011;61754;55.008;73.348;2022-09-17T16:30:17;78.65;;;43.92;;
73512;SDS011;61754;55.008;73.348;2022-09-17T16:32:44;72.13;;;38.95;;
73512;SDS011;61754;55.008;73.348;2022-09-17T16:35:21;83.35;;;38.20;;
73512;SDS011;61754;55.008;73.348;2022-09-17T16:37:48;65.38;;;35.30;;
73512;SDS011;61754;55.008;73.348;2022-09-17T16:40:14;73.63;;;36.55;;
73512;SDS011;61754;55.008;73.348;2022-09-17T16:42:41;83.38;;;40.67;;
73512;SDS011;61754;55.008;73.348;2022-09-17T16:45:07;67.40;;;35.65;;
73512;SDS011;61754;55.008;73.348;2022-09-17T16:47:34;65.32;;;30.88;;
73512;SDS011;61754;55.008;73.348;2022-09-17T16:50:05;53.97;;;30.85;;
73512;SDS011;61754;55.008;73.348;2022-09-17T16:52:32;59.30;;;29.27;;
73512;SDS011;61754;55.008;73.348;2022-09-17T16:54:58;55.22;;;28.27;;
73512;SDS011;61754;55.008;73.348;2022-09-17T16:57:29;65.70;;;34.47;;
73512;SDS011;61754;55.008;73.348;2022-09-17T16:59:56;60.97;;;31.38;;
73512;SDS011;61754;55.008;73.348;2022-09-17T17:02:22;53.13;;;25.40;;
73512;SDS011;61754;55.008;73.348;2022-09-17T17:04:48;83.65;;;32.85;;
73512;SDS011;61754;55.008;73.348;2022-09-17T17:07:14;69.70;;;30.65;;
73512;SDS011;61754;55.008;73.348;2022-09-17T17:09:40;93.57;;;49.22;;
73512;SDS011;61754;55.008;73.348;2022-09-17T17:12:16;118.78;;;49.03;;
73512;SDS011;61754;55.008;73.348;2022-09-17T17:14:42;72.32;;;34.65;;
73512;SDS011;61754;55.008;73.348;2022-09-17T17:17:24;65.50;;;31.25;;
73512;SDS011;61754;55.008;73.348;2022-09-17T17:19:50;69.28;;;30.10;;
73512;SDS011;61754;55.008;73.348;2022-09-17T17:22:17;44.47;;;20.58;;
73512;SDS011;61754;55.008;73.348;2022-09-17T17:24:43;41.05;;;17.88;;
73512;SDS011;61754;55.008;73.348;2022-09-17T17:27:09;41.80;;;21.48;;
73512;SDS011;61754;55.008;73.348;2022-09-17T17:29:35;59.47;;;26.13;;
73512;SDS011;61754;55.008;73.348;2022-09-17T17:32:02;56.22;;;27.75;;
73512;SDS011;61754;55.008;73.348;2022-09-17T17:34:28;48.40;;;21.48;;
73512;SDS011;61754;55.008;73.348;2022-09-17T17:36:55;43.83;;;21.92;;
73512;SDS011;61754;55.008;73.348;2022-09-17T17:39:21;32.72;;;17.10;;
73512;SDS011;61754;55.008;73.348;2022-09-17T17:41:47;35.60;;;17.67;;
73512;SDS011;61754;55.008;73.348;2022-09-17T17:44:13;29.48;;;13.90;;
73512;SDS011;61754;55.008;73.348;2022-09-17T17:46:39;31.70;;;13.35;;
73512;SDS011;61754;55.008;73.348;2022-09-17T17:49:06;35.05;;;15.75;;
73512;SDS011;61754;55.008;73.348;2022-09-17T17:51:32;35.42;;;16.23;;
73512;SDS011;61754;55.008;73.348;2022-09-17T17:53:58;33.42;;;15.77;;
73512;SDS011;61754;55.008;73.348;2022-09-17T17:56:24;21.63;;;10.88;;